M I D A S
Marine Information and Data Acquisition System
Tripno 1575 of the Zeeleeuw from 2008-09-26 06:23:33 to 2008-09-26 16:00:25
Back to CruiseResearch ActivitiesStationsMapUnderway DataData graphs

EquipmentUnitsComment
TimeDGPSUTC
LatitudeDGPSDM.mWGS84
LongitudeDGPSDM.mWGS84
HeadingGyrodeg 
SOGDGPSknotsSpeed over ground
COGDGPSdegCourse over ground
DepthEcho soundermeters200 kHz
Missing or incorrect values are displayed as -999
Navigation data collected by the RV Zeeleeuw from 2008-09-26 06:23:33 to 2008-09-26 16:00:25
Time Latitude Longitude Heading SOG COG Depth
2008-09-26 06:25:40 51°13.702 2°55.793 124 4.7 303 -999
2008-09-26 06:27:40 51°13.835 2°55.65 152.4 4.79 333 -999
2008-09-26 06:29:40 51°13.953 2°55.644 197.4 3.6 13 -999
2008-09-26 06:31:40 51°14.072 2°55.456 321.8 7 325 -999
2008-09-26 06:33:40 51°14.314 2°55.149 320.8 9.4 317 -999
2008-09-26 06:35:40 51°14.38 2°54.668 275.1 9.69 271 -999
2008-09-26 06:37:40 51°14.252 2°54.095 250.5 12 249 -999
2008-09-26 06:39:40 51°14.074 2°53.517 243.4 12.19 242 -999
2008-09-26 06:41:40 51°13.881 2°52.943 242 12.3 241 -999
2008-09-26 06:43:40 51°13.744 2°52.55 246.6 7.2 243 -999
2008-09-26 06:45:40 51°13.619 2°52.184 246.6 8.69 244 -999
2008-09-26 06:47:40 51°13.454 2°51.776 238.5 9.4 238 -999
2008-09-26 06:49:40 51°13.384 2°51.518 253.8 4.9 252 -999
2008-09-26 06:51:40 51°13.39 2°51.402 323.3 1.6 274 -999
2008-09-26 06:53:40 51°13.374 2°51.341 342.6 1.3 244 -999
2008-09-26 06:55:40 51°13.349 2°51.278 341.8 1.39 236 -999
2008-09-26 06:57:40 51°13.323 2°51.211 327.8 1.39 229 -999
2008-09-26 06:59:40 51°13.231 2°50.872 241.4 8.8 243 -999
2008-09-26 07:01:40 51°13.028 2°50.305 241 12.4 240 -999
2008-09-26 07:03:40 51°12.835 2°49.725 242 12.4 241 -999
2008-09-26 07:05:40 51°12.639 2°49.145 241 12.4 242 -999
2008-09-26 07:07:40 51°12.456 2°48.555 244 12.4 243 -999
2008-09-26 07:09:40 51°12.267 2°47.969 243 12.4 243 -999
2008-09-26 07:11:40 51°12.101 2°47.365 244.5 12.5 245 -999
2008-09-26 07:13:40 51°12.011 2°46.732 259.6 12.19 257 -999
2008-09-26 07:15:40 51°11.913 2°46.11 255.6 12 256 -999
2008-09-26 07:17:40 51°11.811 2°45.494 255.5 11.9 256 -999
2008-09-26 07:19:40 51°11.708 2°44.883 255.9 11.9 257 -999
2008-09-26 07:21:40 51°11.609 2°44.274 254.5 11.9 254 -999
2008-09-26 07:23:40 51°11.518 2°43.665 255.4 11.69 256 -999
2008-09-26 07:25:40 51°11.457 2°43.05 261.6 11.8 260 -999
2008-09-26 07:27:40 51°11.349 2°42.492 258.6 11.3 255 -999
2008-09-26 07:29:40 51°11.22 2°42.276 231 4.59 231 -999
2008-09-26 07:31:40 51°11.138 2°42.184 208.5 2.89 213 -999
2008-09-26 07:33:40 51°11.064 2°42.103 214 2.79 218 -999
2008-09-26 07:35:40 51°11.024 2°42.062 186.1 1.39 213 -999
2008-09-26 07:37:40 51°10.996 2°42.03 177.6 1 220 -999
2008-09-26 07:39:40 51°10.948 2°41.982 174.1 1.8 200 -999
2008-09-26 07:41:40 51°10.836 2°41.587 244 9.69 245 -999
2008-09-26 07:43:40 51°10.766 2°40.983 259.8 11.69 260 -999
2008-09-26 07:45:40 51°10.701 2°40.377 258.8 11.69 259 -999
2008-09-26 07:47:40 51°10.637 2°39.772 260.3 11.5 262 -999
2008-09-26 07:49:40 51°10.567 2°39.167 257.8 11.69 260 -999
2008-09-26 07:51:40 51°10.496 2°38.555 258.3 11.8 261 -999
2008-09-26 07:53:40 51°10.432 2°37.936 261.6 11.9 261 -999
2008-09-26 07:55:40 51°10.372 2°37.313 261.1 11.9 261 -999
2008-09-26 07:57:40 51°10.363 2°36.714 269.5 11.4 269 -999
2008-09-26 07:59:40 51°10.632 2°36.384 327.3 10.9 328 -999
2008-09-26 08:01:40 51°10.989 2°36.509 15.1 11.19 15 -999
2008-09-26 08:03:40 51°11.355 2°36.64 11.1 11.19 11 -999
2008-09-26 08:05:40 51°11.716 2°36.782 14.3 11.19 14 -999
2008-09-26 08:07:40 51°12.077 2°36.921 12.3 11.09 14 -999
2008-09-26 08:09:40 51°12.436 2°37.062 12.5 11.09 13 -999
2008-09-26 08:11:40 51°12.809 2°37.154 6 11.3 7 -999
2008-09-26 08:13:40 51°13.175 2°37.175 0.2 11.09   -999
2008-09-26 08:15:40 51°13.537 2°37.131 355.1 10.9 356 -999
2008-09-26 08:17:40 51°13.912 2°37.091 355.8 11.09 356 -999
2008-09-26 08:19:40 51°14.287 2°37.051 357.3 11.3 357 -999
2008-09-26 08:21:40 51°14.658 2°36.998 352.8 11.19 353 -999
2008-09-26 08:23:40 51°15.029 2°36.956 354.8 11.19 356 -999
2008-09-26 08:25:40 51°15.405 2°36.911 354.1 11.4 356 -999
2008-09-26 08:27:40 51°15.778 2°36.861 353.6 11.19 356 -999
2008-09-26 08:29:40 51°16.125 2°36.813 354.5 9.9 355 -999
2008-09-26 08:31:40 51°16.407 2°36.799 357.3 8.9 357 -999
2008-09-26 08:33:40 51°16.522 2°36.783 343.6 2.79 344 -999
2008-09-26 08:35:40 51°16.58 2°36.769 354.1 1.69 355 -999
2008-09-26 08:37:40 51°16.607 2°36.765 2.1 0.69 355 -999
2008-09-26 08:39:40 51°16.619 2°36.757 2 0.4 333 -999
2008-09-26 08:41:40 51°16.641 2°36.73 346.6 0.9 335 -999
2008-09-26 08:43:40 51°16.817 2°36.42 310.3 9.8 311 -999
2008-09-26 08:45:40 51°17.037 2°35.993 307.8 10.3 309 -999
2008-09-26 08:47:40 51°17.251 2°35.571 306.8 10.09 308 -999
2008-09-26 08:49:40 51°17.458 2°35.158 306.8 9.9 309 -999
2008-09-26 08:51:40 51°17.661 2°34.741 305.1 10 307 -999
2008-09-26 08:53:40 51°17.875 2°34.314 305.5 10.4 308 -999
2008-09-26 08:55:40 51°18.094 2°33.884 305.5 10.5 309 -999
2008-09-26 08:57:40 51°18.303 2°33.442 303.5 10.4 306 -999
2008-09-26 08:59:40 51°18.508 2°32.994 303.3 10.5 306 -999
2008-09-26 09:01:40 51°18.715 2°32.537 304.1 10.69 306 -999
2008-09-26 09:03:40 51°18.925 2°32.078 304.6 10.69 307 -999
2008-09-26 09:05:40 51°19.133 2°31.623 304.3 10.5 305 -999
2008-09-26 09:07:40 51°19.345 2°31.186 304.6 10.4 305 -999
2008-09-26 09:09:40 51°19.564 2°30.759 304.1 10.3 312 -999
2008-09-26 09:11:40 51°19.774 2°30.352 304.3 9.8 311 -999
2008-09-26 09:13:40 51°19.91 2°30.136 307.1 5 320 -999
2008-09-26 09:15:40 51°19.995 2°30.046 307.1 2.6 332 -999
2008-09-26 09:17:40 51°20.026 2°30.075 307.6 1.19 36 -999
2008-09-26 09:19:40 51°20.044 2°30.124 338.8 1.19 66 -999
2008-09-26 09:21:40 51°20.084 2°30.186 348.1 1.69 30 -999
2008-09-26 09:23:40 51°20.024 2°30.448 138.5 5.5 129 -999
2008-09-26 09:25:40 51°19.749 2°30.863 141.5 11.59 135 -999
2008-09-26 09:27:40 51°19.468 2°31.269 142.3 11.4 135 -999
2008-09-26 09:29:40 51°19.194 2°31.658 143 11 137 -999
2008-09-26 09:31:40 51°18.914 2°32.027 143.3 10.9 140 -999
2008-09-26 09:33:40 51°18.616 2°32.354 149.8 10.8 146 -999
2008-09-26 09:35:40 51°18.314 2°32.675 149.9 10.9 146 -999
2008-09-26 09:37:40 51°18.002 2°33.003 150.4 11.3 146 -999
2008-09-26 09:39:40 51°17.692 2°33.339 149.6 11.19 146 -999
2008-09-26 09:41:40 51°17.382 2°33.679 149.5 11.3 144 -999
2008-09-26 09:43:40 51°17.07 2°34.011 151.3 11.19 146 -999
2008-09-26 09:45:40 51°16.75 2°34.36 150.6 11.9 146 -999
2008-09-26 09:47:40 51°16.419 2°34.701 151 11.8 152 -999
2008-09-26 09:49:40 51°16.091 2°35.034 151.1 11.59 147 -999
2008-09-26 09:51:40 51°15.774 2°35.357 152.9 11.19 147 -999
2008-09-26 09:53:40 51°15.451 2°35.657 152.9 11.19 150 -999
2008-09-26 09:55:40 51°15.131 2°35.946 154.5 11.19 150 -999
2008-09-26 09:57:40 51°14.804 2°36.241 154.5 11.19 150 -999
2008-09-26 09:59:40 51°14.47 2°36.524 156 11.4 153 -999
2008-09-26 10:01:40 51°14.128 2°36.794 155.8 11.4 156 -999
2008-09-26 10:03:40 51°13.771 2°36.998 166.1 11.5 157 -999
2008-09-26 10:05:40 51°13.411 2°37.082 180.4 10.59 179 -999
2008-09-26 10:07:40 51°13.051 2°37.049 186.3 10.9 182 -999
2008-09-26 10:09:40 51°12.683 2°37.026 184.5 11 181 -999
2008-09-26 10:11:40 51°12.32 2°36.969 189.6 10.9 188 -999
2008-09-26 10:13:40 51°11.959 2°36.89 190.5 11 189 -999
2008-09-26 10:15:40 51°11.599 2°36.801 191.6 10.9 190 -999
2008-09-26 10:17:40 51°11.24 2°36.72 190.5 10.8 187 -999
2008-09-26 10:19:40 51°10.886 2°36.645 190.5 10.69 188 -999
2008-09-26 10:21:40 51°10.553 2°36.751 172.8 10.8 160 -999
2008-09-26 10:23:40 51°10.433 2°37.334 105.4 12.19 99 -999
2008-09-26 10:25:40 51°10.401 2°37.996 97.5 12.59 94 -999
2008-09-26 10:27:40 51°10.352 2°38.654 99.7 12.59 96 -999
2008-09-26 10:29:40 51°10.293 2°39.309 101.2 12.5 98 -999
2008-09-26 10:31:40 51°10.241 2°39.977 99.2 12.8 97 -999
2008-09-26 10:33:40 51°10.18 2°40.627 101.2 12.19 100 -999
2008-09-26 10:35:40 51°10.127 2°41.266 98.5 12.09 97 -999
2008-09-26 10:37:40 51°10.092 2°41.886 95 12.09 95 -999
2008-09-26 10:39:40 51°10.073 2°42.298 95.9 6.9 93 -999
2008-09-26 10:41:40 51°10.061 2°42.571 97 5 96 -999
2008-09-26 10:43:40 51°10.065 2°42.761 86.4 3.1 84 -999
2008-09-26 10:45:40 51°10.065 2°42.859 96.9 1.69 91 -999
2008-09-26 10:47:40 51°10.061 2°42.921 108 1.19 96 -999
2008-09-26 10:49:40 51°10.059 2°42.966 108.7 0.8 97 -999
2008-09-26 10:51:40 51°10.059 2°43 114 0.69 94 -999
2008-09-26 10:53:40 51°10.058 2°43.025 133.6 0.4 98 -999
2008-09-26 10:55:40 51°10.058 2°43.048 152.3 0.5 92 -999
2008-09-26 10:57:40 51°10.056 2°43.069 159.5 0.4 89 -999
2008-09-26 10:59:40 51°10.002 2°42.889 244.1 5.4 251 -999
2008-09-26 11:01:40 51°9.898 2°42.386 248.8 10.09 250 -999
2008-09-26 11:03:40 51°9.88 2°41.849 267 10.3 269 -999
2008-09-26 11:05:40 51°9.933 2°41.315 273.8 10.3 276 -999
2008-09-26 11:07:40 51°10.102 2°40.835 295.8 10.4 300 -999
2008-09-26 11:09:40 51°10.377 2°40.62 334.6 10.59 347 -999
2008-09-26 11:11:40 51°10.685 2°41.023 37.2 12.09 41 -999
2008-09-26 11:13:40 51°10.933 2°41.54 53.2 12.09 54 -999
2008-09-26 11:15:40 51°11.166 2°42.056 52.8 12.09 55 -999
2008-09-26 11:17:40 51°11.422 2°42.549 48.3 11.9 49 -999
2008-09-26 11:19:40 51°11.719 2°42.961 39.2 11.9 41 -999
2008-09-26 11:21:40 51°12.029 2°43.357 37.8 11.9 39 -999
2008-09-26 11:23:40 51°12.304 2°43.811 45.6 12 47 -999
2008-09-26 11:25:40 51°12.442 2°44.391 73.2 11.69 73 -999
2008-09-26 11:27:40 51°12.568 2°44.975 72.2 11.59 71 -999
2008-09-26 11:29:40 51°12.703 2°45.553 71.7 11.69 70 -999
2008-09-26 11:31:40 51°12.834 2°46.134 72.5 11.69 71 -999
2008-09-26 11:33:40 51°12.999 2°46.697 64.2 11.69 63 -999
2008-09-26 11:35:40 51°13.202 2°47.23 58.2 11.8 57 -999
2008-09-26 11:37:40 51°13.42 2°47.747 55.8 11.69 56 -999
2008-09-26 11:39:40 51°13.637 2°48.27 56.7 11.8 57 -999
2008-09-26 11:41:40 51°13.846 2°48.8 59.3 11.8 58 -999
2008-09-26 11:43:40 51°14.057 2°49.33 59.7 11.9 58 -999
2008-09-26 11:45:40 51°14.261 2°49.867 61 11.8 60 -999
2008-09-26 11:47:40 51°14.449 2°50.416 62.5 11.8 61 -999
2008-09-26 11:49:40 51°14.616 2°50.986 66.5 11.69 65 -999
2008-09-26 11:51:40 51°14.783 2°51.55 66 11.69 65 -999
2008-09-26 11:53:40 51°14.974 2°52.086 58.7 11.69 56 -999
2008-09-26 11:55:40 51°15.199 2°52.594 55.2 11.69 54 -999
2008-09-26 11:57:40 51°15.44 2°53.09 52.7 11.69 51 -999
2008-09-26 11:59:40 51°15.692 2°53.573 49.7 11.9 49 -999
2008-09-26 13:01:40 51°20.245 2°58.489 73 12 70 -999
2008-09-26 13:03:40 51°20.372 2°59.088 73.9 11.9 72 -999
2008-09-26 13:05:40 51°20.496 2°59.693 74 11.9 72 -999
2008-09-26 13:07:40 51°20.626 3°0.284 71.5 11.8 70 -999
2008-09-26 13:09:40 51°20.751 3°0.866 71.7 11.69 70 -999
2008-09-26 13:11:40 51°20.874 3°1.458 73.5 11.8 71 -999
2008-09-26 13:13:40 51°21.004 3°2.057 71.2 11.8 70 -999
2008-09-26 13:15:40 51°21.142 3°2.646 68 11.9 69 -999
2008-09-26 13:17:40 51°21.27 3°3.239 71.2 11.8 71 -999
2008-09-26 13:19:40 51°21.395 3°3.829 73.5 11.69 72 -999
2008-09-26 13:21:40 51°21.514 3°4.42 73.2 11.59 72 -999
2008-09-26 13:23:40 51°21.624 3°5.009 74.5 11.5 73 -999
2008-09-26 13:25:40 51°21.732 3°5.597 76.7 11.5 75 -999
2008-09-26 13:27:40 51°21.833 3°6.187 75.2 11.5 75 -999
2008-09-26 13:29:40 51°21.928 3°6.778 75.5 11.5 75 -999
2008-09-26 13:31:40 51°21.984 3°7.388 83.4 11.5 81 -999
2008-09-26 13:33:40 51°22.052 3°7.984 80.7 11.5 80 -999
2008-09-26 13:35:40 51°22.118 3°8.588 80.9 11.5 80 -999
2008-09-26 13:37:40 51°22.186 3°9.168 79.2 11.19 80 -999
2008-09-26 13:39:40 51°22.249 3°9.757 81.2 11.19 81 -999
2008-09-26 13:41:40 51°22.326 3°10.331 79 11 79 -999
2008-09-26 13:43:40 51°22.394 3°10.875 81.5 10.9 79 -999
2008-09-26 13:45:40 51°22.446 3°11.076 70.4 3.2 62 -999
2008-09-26 13:47:40 51°22.464 3°11.122 81.7 0.8 61 -999
2008-09-26 13:49:40 51°22.472 3°11.129 78.2 0.2 6 -999
2008-09-26 13:51:40 51°22.481 3°11.113 67.5 0.4 309 -999
2008-09-26 13:53:40 51°22.506 3°11.289 89.5 4 89 -999
2008-09-26 13:55:40 51°22.52 3°11.803 87 9.9 88 -999
2008-09-26 13:57:40 51°22.543 3°12.324 84.7 9.8 83 -999
2008-09-26 13:59:40 51°22.564 3°12.82 84 9.59 85 -999
2008-09-26 14:01:40 51°22.582 3°13.058 83.4 3.5 82 -999
2008-09-26 14:03:40 51°22.591 3°13.127 88 1.1 89 -999
2008-09-26 14:05:40 51°22.582 3°13.137 92.5 0.29 174 -999
2008-09-26 14:07:40 51°22.577 3°13.138 94.5 0.29 201 -999
2008-09-26 14:09:40 51°22.803 3°13.094 3.5 8.69 352 -999
2008-09-26 14:11:40 51°23.165 3°12.85 340.8 11.9 335 -999
2008-09-26 14:13:40 51°23.525 3°12.575 338.8 12 334 -999
2008-09-26 14:15:40 51°23.89 3°12.315 340.3 12 336 -999
2008-09-26 14:17:40 51°24.25 3°12.02 335.1 12.19 331 -999
2008-09-26 14:19:40 51°24.607 3°11.698 334.3 12.3 330 -999
2008-09-26 14:21:40 51°24.969 3°11.378 337.3 12.4 332 -999
2008-09-26 14:23:40 51°25.292 3°10.958 321.8 12.5 319 -999
2008-09-26 14:25:40 51°25.605 3°10.513 321.1 12.59 318 -999
2008-09-26 14:27:40 51°25.892 3°10.026 317 12.59 313 -999
2008-09-26 14:29:40 51°26.111 3°9.453 298.1 12.59 299 -999
2008-09-26 14:31:40 51°26.313 3°8.87 297.5 12.59 298 -999
2008-09-26 14:33:40 51°26.42 3°8.491 290.8 6.59 293 -999
2008-09-26 14:35:40 51°26.467 3°8.305 289.5 3.29 294 -999
2008-09-26 14:37:40 51°26.498 3°8.223 313.5 1.6 302 -999
2008-09-26 14:39:40 51°26.518 3°8.161 319.3 1.19 295 -999
2008-09-26 14:41:40 51°26.523 3°7.96 277.1 5.09 277 -999
2008-09-26 14:43:40 51°26.307 3°7.577 218.9 10.5 225 -999
2008-09-26 14:45:40 51°26.05 3°7.125 221.8 11.8 227 -999
2008-09-26 14:47:40 51°25.796 3°6.653 225.6 11.69 228 -999
2008-09-26 14:49:40 51°25.541 3°6.173 226 11.9 229 -999
2008-09-26 14:51:40 51°25.294 3°5.668 226.6 12.09 232 -999
2008-09-26 14:53:40 51°25.043 3°5.156 227 12.3 232 -999
2008-09-26 14:55:40 51°24.788 3°4.641 227 12.4 232 -999
2008-09-26 14:57:40 51°24.527 3°4.136 224 12.3 230 -999
2008-09-26 14:59:40 51°24.27 3°3.62 226.8 12.5 233 -999
2008-09-26 15:01:40 51°24.01 3°3.101 226.6 12.5 230 -999
2008-09-26 15:03:40 51°23.746 3°2.573 228.4 12.8 233 -999
2008-09-26 15:05:40 51°23.454 3°2.096 219.1 12.5 225 -999
2008-09-26 15:07:40 51°23.166 3°1.617 220.8 12.69 227 -999
2008-09-26 15:09:40 51°22.875 3°1.137 221.3 12.59 225 -999
2008-09-26 15:11:40 51°22.575 3°0.667 219.3 12.5 224 -999
2008-09-26 15:13:40 51°22.275 3°0.2 217.8 12.59 223 -999
2008-09-26 15:15:40 51°21.973 2°59.739 217.6 12.59 221 -999
2008-09-26 15:17:40 51°21.664 2°59.278 217.9 12.59 223 -999
2008-09-26 15:19:40 51°21.359 2°58.797 220.5 12.69 225 -999
2008-09-26 15:21:40 51°21.048 2°58.335 217.9 12.8 221 -999
2008-09-26 15:23:40 51°20.726 2°57.899 215 12.69 219 -999
2008-09-26 15:25:40 51°20.411 2°57.45 217.6 12.69 222 -999
2008-09-26 15:27:40 51°20.092 2°57.01 215 12.69 221 -999
2008-09-26 15:29:40 51°19.773 2°56.576 215.4 12.59 221 -999
2008-09-26 15:31:40 51°19.452 2°56.127 215.5 12.8 221 -999
2008-09-26 15:33:40 51°19.137 2°55.679 217.3 12.9 223 -999
2008-09-26 15:35:40 51°18.811 2°55.246 217.3 12.8 221 -999
2008-09-26 15:37:40 51°18.484 2°54.821 215 12.59 219 -999
2008-09-26 15:39:40 51°18.162 2°54.384 216.9 12.59 220 -999
2008-09-26 15:41:40 51°17.829 2°53.973 215.5 12.8 218 -999
2008-09-26 15:43:40 51°17.489 2°53.564 213.1 12.69 217 -999
2008-09-26 15:45:40 51°17.106 2°53.344 193.5 12.09 195 -999
2008-09-26 15:47:40 51°16.741 2°53.567 147 12.19 153 -999
2008-09-26 15:49:40 51°16.366 2°53.796 152.8 12 159 -999
2008-09-26 15:51:40 51°15.992 2°54.022 150.5 12 157 -999
2008-09-26 15:53:40 51°15.612 2°54.229 153.1 12.09 161 -999
2008-09-26 15:55:40 51°15.239 2°54.444 154.1 11.8 160 -999
2008-09-26 15:57:40 51°14.868 2°54.663 151 11.8 160 -999
2008-09-26 15:59:40 51°14.49 2°54.863 160.1 11.9 163 -999